Elko, NV

3:52 AM PST on March 02, 2015 (GMT -0800)
Elko Regional | Change Station
CLOSE
Current Station
Airport
Location: Elko,
Elevation: 5052 ft
Nearby Weather Stations

Elev 5052 ft 40.82 °N, 115.79 °W | Updated 56 minutes ago

Clear
Clear
23 °F
Feels Like 17 °F
N
5
Wind Variable Wind from NNE

Today
High -- | Low -- °F
--% Chance of Precip.
Yesterday
High -- | Low -- °F
Precip. -- in
6:15 AM 5:35 PM
Waxing Gibbous, 91% visible
Pressure 29.86 in
Visibility 10.0 miles
Clouds Clear
Windchill 17 °F
Dew Point 17 °F
Humidity 78%
Rainfall 0.00 in
Snow Depth Not available.
UV 0 out of 12
Pollen 4.00 out of 12
Air Quality Not available.
Flu Activity Not available.
METAR KEKO 021056Z AUTO 03004KT 10SM CLR M05/M08 A2982 RMK AO2 SLP109 T10501083

More Conditions Fewer Conditions

Pressure 29.86 in
Visibility 10.0 miles
Clouds Clear
Windchill 17 °F
Dew Point 17 °F
Humidity 78%
Rainfall 0.00 in
Snow Depth Not available.
UV 0 out of 12
Pollen 4.00 out of 12
Air Quality Not available.
Flu Activity Not available.
METAR KEKO 021056Z AUTO 03004KT 10SM CLR M05/M08 A2982 RMK AO2 SLP109 T10501083

More Conditions Fewer Conditions

10-Day Weather Forecast

Almanac

Astronomy

Mar. 02, 2015 Rise Set
Actual Time
Civil Twilight
Nautical Twilight
Astronomical Twilight
Moon
Length of Visible Light
Length of Day
Tomorrow will be .
, % of the Moon is Illuminated

Today's Extremes

State Highs State Lows

Community

WunderPhotos

Upload Photos

1,801,757 photos uploaded!

WunderBlogs® & News

Nearby

Air Quality

  Air Quality AQ Index Pollutant
Not available.

Snow Depth

Station Depth Elevation

Earthquake Activity

City Distance Mag. Time & Date
Minimum magnitude displayed is 2.5.

Coastal Water Temperatures

Place Temperature

Nearby Weather Stations